Time;durP1;ratioP1;P1;durP2;ratioP2;P2;SDS_P1;SDS_P2;PMS_P1;PMS_P2;Temp;Humidity;BMP_temperature;BMP_pressure;BME280_temperature;BME280_humidity;BME280_pressure;Samples;Min_cycle;Max_cycle;Signal;HPM_P1;HPM_P2
2022/07/20 00:02:10;;;;;;;2.90;2.70;;;24.30;45.60;;;;;;5107788;28;20615;-81
2022/07/20 00:04:37;;;;;;;3.07;2.60;;;24.20;45.80;;;;;;5108199;28;21047;-81
2022/07/20 00:07:04;;;;;;;2.50;2.30;;;24.10;46.10;;;;;;5107927;28;20647;-81
2022/07/20 00:12:17;;;;;;;2.80;2.40;;;24.00;46.10;;;;;;5097780;28;20957;-81
2022/07/20 00:14:45;;;;;;;5.53;2.53;;;23.90;46.30;;;;;;5088556;28;20716;-80
2022/07/20 00:17:16;;;;;;;3.23;2.80;;;24.00;46.40;;;;;;5087901;28;20616;-80
2022/07/20 00:19:44;;;;;;;4.40;3.07;;;24.00;46.20;;;;;;5087912;28;20666;-80
2022/07/20 00:22:12;;;;;;;1.90;1.80;;;23.90;46.80;;;;;;5087453;28;20623;-81
2022/07/20 00:24:40;;;;;;;2.57;2.37;;;23.80;46.60;;;;;;5086965;28;20616;-81
2022/07/20 00:27:07;;;;;;;6.40;3.00;;;23.70;48.50;;;;;;5086895;28;21205;-80
2022/07/20 00:29:35;;;;;;;2.93;2.67;;;23.50;48.60;;;;;;5088109;28;21398;-80
2022/07/20 00:32:03;;;;;;;3.27;2.40;;;23.40;49.30;;;;;;5088939;28;20640;-81
2022/07/20 00:34:30;;;;;;;4.30;3.17;;;23.40;48.10;;;;;;5104314;28;20688;-80
2022/07/20 00:36:58;;;;;;;2.83;2.10;;;23.30;49.30;;;;;;5108355;28;20650;-81
2022/07/20 00:39:26;;;;;;;2.30;2.10;;;23.20;49.10;;;;;;5107923;28;20596;-81
2022/07/20 00:41:53;;;;;;;4.23;2.63;;;23.00;49.10;;;;;;5108040;28;21302;-81
2022/07/20 00:44:21;;;;;;;3.13;2.77;;;22.80;49.30;;;;;;5107993;28;20628;-81
2022/07/20 00:46:49;;;;;;;2.83;2.53;;;22.70;49.90;;;;;;5107882;28;20607;-81
2022/07/20 00:49:17;;;;;;;3.80;2.60;;;22.50;50.80;;;;;;5107863;28;20655;-81
2022/07/20 00:51:45;;;;;;;2.87;2.67;;;22.40;51.30;;;;;;5108144;28;20645;-81
2022/07/20 00:54:13;;;;;;;3.77;2.53;;;22.30;51.90;;;;;;5107556;28;20731;-79
2022/07/20 00:56:40;;;;;;;5.30;3.30;;;22.30;52.40;;;;;;5107886;28;20668;-79
2022/07/20 00:59:09;;;;;;;3.47;3.17;;;22.30;52.40;;;;;;5108416;28;20635;-79
2022/07/20 01:01:37;;;;;;;2.83;2.60;;;22.40;51.30;;;;;;5107457;28;20612;-79
2022/07/20 01:04:06;;;;;;;3.10;2.40;;;22.30;51.30;;;;;;5107295;28;20607;-81
2022/07/20 01:06:34;;;;;;;5.37;2.70;;;22.20;52.20;;;;;;5108622;28;20643;-79
2022/07/20 01:09:01;;;;;;;3.60;3.23;;;22.10;52.50;;;;;;5108111;28;21213;-80
2022/07/20 01:11:28;;;;;;;3.27;2.93;;;22.00;53.20;;;;;;5107390;28;20614;-81
2022/07/20 01:14:03;;;;;;;3.37;3.10;;;22.00;52.60;;;;;;5106798;28;20604;-80
2022/07/20 01:16:30;;;;;;;4.70;2.83;;;22.00;53.30;;;;;;5107366;28;20660;-80
2022/07/20 01:18:58;;;;;;;2.90;2.50;;;21.90;53.20;;;;;;5093389;28;21377;-80
2022/07/20 01:21:28;;;;;;;7.00;3.50;;;21.90;53.20;;;;;;5087205;28;20626;-80
2022/07/20 01:23:55;;;;;;;3.43;2.80;;;21.80;52.90;;;;;;5086351;28;21222;-80
2022/07/20 01:26:23;;;;;;;3.60;3.30;;;21.60;53.60;;;;;;5087233;28;20712;-81
2022/07/20 01:28:51;;;;;;;4.13;3.30;;;21.60;52.60;;;;;;5087134;28;20612;-81
2022/07/20 01:31:18;;;;;;;3.53;3.23;;;21.60;53.30;;;;;;5086901;28;20620;-81
2022/07/20 01:33:46;;;;;;;4.50;2.63;;;21.60;53.10;;;;;;5097290;28;20636;-81
2022/07/20 01:36:14;;;;;;;3.30;3.00;;;21.50;54.20;;;;;;5107686;28;20615;-81
2022/07/20 01:38:42;;;;;;;4.90;3.27;;;21.50;53.40;;;;;;5109612;28;20608;-81
2022/07/20 01:41:10;;;;;;;3.77;3.40;;;21.30;54.40;;;;;;5111023;28;20650;-81
2022/07/20 01:43:38;;;;;;;2.50;2.30;;;21.30;54.50;;;;;;5110529;28;20612;-81
2022/07/20 01:46:06;;;;;;;3.80;2.80;;;21.30;53.70;;;;;;5110628;28;20991;-81
2022/07/20 01:48:34;;;;;;;3.40;2.77;;;21.30;54.50;;;;;;5110806;28;20635;-80
2022/07/20 01:51:02;;;;;;;4.00;2.90;;;21.30;53.40;;;;;;5111003;28;20647;-81
2022/07/20 01:53:30;;;;;;;3.40;3.10;;;21.30;54.00;;;;;;5110657;28;20664;-81
2022/07/20 01:55:58;;;;;;;3.70;3.33;;;21.20;54.40;;;;;;5110460;28;20745;-81
2022/07/20 01:58:25;;;;;;;4.33;2.83;;;21.10;54.50;;;;;;5110424;28;20973;-81
2022/07/20 02:00:52;;;;;;;2.30;2.10;;;21.10;54.40;;;;;;5111437;28;20600;-81
2022/07/20 02:03:19;;;;;;;5.10;3.53;;;21.00;54.70;;;;;;5110223;28;20619;-81
2022/07/20 02:05:46;;;;;;;2.40;2.20;;;21.00;54.80;;;;;;5110913;28;20612;-81
2022/07/20 02:08:13;;;;;;;4.40;3.20;;;20.90;55.30;;;;;;5111155;28;20612;-81
2022/07/20 02:10:40;;;;;;;2.70;2.27;;;20.90;54.70;;;;;;5111740;28;20763;-81
2022/07/20 02:13:08;;;;;;;2.47;2.23;;;20.80;55.00;;;;;;5110255;28;20604;-80
2022/07/20 02:18:21;;;;;;;3.30;2.73;;;20.70;55.10;;;;;;5110911;28;20606;-79
2022/07/20 02:20:48;;;;;;;2.97;2.63;;;20.70;54.60;;;;;;5110108;28;20703;-79
2022/07/20 02:23:15;;;;;;;4.17;3.27;;;20.60;55.50;;;;;;5109408;28;20658;-81
2022/07/20 02:25:41;;;;;;;3.33;3.07;;;20.70;54.90;;;;;;5110059;28;20603;-79
2022/07/20 02:28:10;;;;;;;4.13;2.67;;;20.70;54.60;;;;;;5111657;28;20990;-79
2022/07/20 02:30:38;;;;;;;3.10;2.90;;;20.70;54.80;;;;;;5110085;28;20659;-79
2022/07/20 02:33:05;;;;;;;3.37;2.27;;;20.60;55.40;;;;;;5109612;28;21095;-81
2022/07/20 02:35:32;;;;;;;7.23;2.80;;;20.60;56.10;;;;;;5110011;28;20616;-79
2022/07/20 02:37:59;;;;;;;3.60;2.53;;;20.50;56.20;;;;;;5109593;28;20723;-79
2022/07/20 02:40:26;;;;;;;2.83;2.60;;;20.50;56.70;;;;;;5109344;28;20710;-79
2022/07/20 02:42:53;;;;;;;3.63;2.43;;;20.30;56.80;;;;;;5109568;28;20747;-79
2022/07/20 02:45:22;;;;;;;3.97;3.20;;;20.10;57.00;;;;;;5110054;28;20608;-79
2022/07/20 02:47:49;;;;;;;3.77;3.47;;;20.20;56.40;;;;;;5109230;28;21024;-80
2022/07/20 02:50:16;;;;;;;2.73;2.53;;;20.30;56.60;;;;;;5107794;28;20670;-81
2022/07/20 02:52:44;;;;;;;3.10;2.90;;;20.10;57.20;;;;;;5108217;28;20673;-81
2022/07/20 02:55:12;;;;;;;3.40;2.57;;;20.00;57.60;;;;;;5108747;28;20618;-81
2022/07/20 02:57:39;;;;;;;4.03;3.13;;;19.90;57.80;;;;;;5109506;28;20719;-81
2022/07/20 03:00:07;;;;;;;3.00;2.80;;;20.00;57.60;;;;;;5109393;28;20722;-81
2022/07/20 03:02:35;;;;;;;2.20;2.00;;;20.10;56.60;;;;;;5108733;28;20666;-81
2022/07/20 03:05:02;;;;;;;3.30;2.20;;;20.20;56.50;;;;;;5109462;28;20636;-81
2022/07/20 03:07:29;;;;;;;3.60;2.97;;;20.10;56.30;;;;;;5109349;28;20968;-81
2022/07/20 03:09:56;;;;;;;3.27;2.60;;;20.10;57.60;;;;;;5108802;28;20774;-81
2022/07/20 03:12:23;;;;;;;2.60;1.97;;;20.00;57.70;;;;;;5108723;28;20731;-81
2022/07/20 03:14:51;;;;;;;2.50;2.27;;;20.00;58.00;;;;;;5109491;28;20612;-81
2022/07/20 03:17:18;;;;;;;3.00;2.27;;;20.00;58.70;;;;;;5109079;28;20734;-81
2022/07/20 03:19:46;;;;;;;2.80;2.20;;;20.00;57.10;;;;;;5108670;28;20762;-81
2022/07/20 03:22:13;;;;;;;3.07;2.80;;;20.10;57.70;;;;;;5108866;28;20661;-81
2022/07/20 03:24:40;;;;;;;3.13;2.30;;;20.00;57.90;;;;;;5109539;28;20715;-81
2022/07/20 03:27:07;;;;;;;3.50;3.00;;;19.90;58.20;;;;;;5110179;28;21086;-81
2022/07/20 03:29:34;;;;;;;2.80;2.60;;;19.80;58.20;;;;;;5111494;28;20679;-81
2022/07/20 03:32:01;;;;;;;3.80;2.77;;;19.80;58.10;;;;;;5109455;28;20643;-81
2022/07/20 03:34:28;;;;;;;2.17;2.07;;;19.80;57.90;;;;;;5108065;28;20786;-81
2022/07/20 03:36:56;;;;;;;2.90;2.37;;;19.80;57.80;;;;;;5108828;28;21046;-81
2022/07/20 03:39:23;;;;;;;4.03;3.00;;;19.80;59.00;;;;;;5108117;28;21115;-80
2022/07/20 03:41:50;;;;;;;3.47;3.17;;;19.70;59.40;;;;;;5108306;28;20649;-80
2022/07/20 03:44:17;;;;;;;4.60;2.90;;;19.70;59.40;;;;;;5107611;28;20646;-81
2022/07/20 03:46:44;;;;;;;2.67;2.47;;;19.70;60.00;;;;;;5108819;28;20773;-81
2022/07/20 03:49:11;;;;;;;3.70;3.27;;;19.60;58.90;;;;;;5108060;28;20639;-80
2022/07/20 03:51:38;;;;;;;2.50;2.30;;;19.60;58.80;;;;;;5108970;28;20696;-80
2022/07/20 03:54:07;;;;;;;9.63;2.73;;;19.80;57.10;;;;;;5108279;28;20619;-81
2022/07/20 03:56:39;;;;;;;4.17;3.60;;;19.90;58.20;;;;;;5107887;28;20623;-81
2022/07/20 03:59:07;;;;;;;4.07;3.20;;;19.90;58.90;;;;;;5109170;28;20735;-81
2022/07/20 04:01:34;;;;;;;3.40;2.63;;;19.90;58.30;;;;;;5108594;28;20659;-81
2022/07/20 04:04:01;;;;;;;3.03;2.67;;;19.90;58.00;;;;;;5108452;28;20616;-80
2022/07/20 04:06:28;;;;;;;2.67;2.47;;;19.80;57.90;;;;;;5106775;28;21234;-81
2022/07/20 04:08:54;;;;;;;3.93;2.70;;;19.70;58.70;;;;;;5108604;28;20706;-81
2022/07/20 04:11:23;;;;;;;4.27;2.80;;;19.60;58.90;;;;;;5108541;28;20739;-81
2022/07/20 04:13:50;;;;;;;2.83;2.60;;;19.70;57.90;;;;;;5107569;28;20711;-81
2022/07/20 04:16:17;;;;;;;3.77;3.33;;;19.80;57.90;;;;;;5108547;28;20655;-81
2022/07/20 04:18:44;;;;;;;6.83;3.70;;;19.90;57.60;;;;;;5108523;28;20720;-81
2022/07/20 04:21:11;;;;;;;2.60;2.30;;;19.90;58.60;;;;;;5108498;28;20658;-81
2022/07/20 04:23:38;;;;;;;4.43;2.67;;;19.90;59.40;;;;;;5107593;28;20611;-81
2022/07/20 04:26:05;;;;;;;2.97;2.63;;;20.00;58.40;;;;;;5108298;28;20604;-80
2022/07/20 04:28:33;;;;;;;4.70;2.77;;;20.00;58.90;;;;;;5107956;28;20682;-81
2022/07/20 04:31:00;;;;;;;3.93;3.53;;;20.00;59.70;;;;;;5108645;28;20622;-81
2022/07/20 04:33:27;;;;;;;4.87;2.60;;;20.00;59.70;;;;;;5107791;28;20973;-81
2022/07/20 04:35:54;;;;;;;2.97;2.63;;;20.10;60.00;;;;;;5108062;28;21242;-81
2022/07/20 04:38:21;;;;;;;2.87;2.27;;;20.10;58.90;;;;;;5108772;28;20648;-81
2022/07/20 04:40:49;;;;;;;3.03;2.70;;;20.10;59.90;;;;;;5107572;28;20661;-81
2022/07/20 04:43:15;;;;;;;4.93;2.33;;;20.30;59.10;;;;;;5108036;28;20740;-81
2022/07/20 04:45:44;;;;;;;4.73;2.53;;;20.30;59.30;;;;;;5108497;28;20714;-81
2022/07/20 04:48:11;;;;;;;2.63;2.43;;;20.30;60.50;;;;;;5108431;28;20770;-81
2022/07/20 04:50:37;;;;;;;3.57;3.27;;;20.40;60.90;;;;;;5108450;28;20624;-81
2022/07/20 04:53:04;;;;;;;5.80;4.00;;;20.50;60.40;;;;;;5107382;28;20647;-81
2022/07/20 04:55:31;;;;;;;4.30;3.23;;;20.60;60.20;;;;;;5106140;28;21177;-82
2022/07/20 04:57:58;;;;;;;2.37;2.13;;;20.60;60.50;;;;;;5106616;28;20658;-81
2022/07/20 05:00:25;;;;;;;3.00;2.70;;;20.80;60.00;;;;;;5105991;28;20685;-81
2022/07/20 05:02:53;;;;;;;3.50;2.60;;;20.90;58.70;;;;;;5105638;28;20654;-81
2022/07/20 05:05:20;;;;;;;3.50;3.00;;;21.00;58.00;;;;;;5107597;28;21213;-81
2022/07/20 05:07:47;;;;;;;3.13;2.83;;;21.10;57.50;;;;;;5107152;28;21179;-81
2022/07/20 05:10:14;;;;;;;3.53;2.50;;;21.30;56.90;;;;;;5107296;28;20719;-81
2022/07/20 05:12:41;;;;;;;3.93;2.20;;;21.40;56.50;;;;;;5107767;28;20683;-81
2022/07/20 05:15:09;;;;;;;3.90;3.17;;;21.50;56.70;;;;;;5111825;28;20734;-81
2022/07/20 05:17:36;;;;;;;6.33;3.60;;;21.60;55.90;;;;;;5111650;28;20619;-81
2022/07/20 05:20:05;;;;;;;3.37;2.57;;;21.60;56.10;;;;;;5111575;28;20730;-81
2022/07/20 05:22:32;;;;;;;3.83;3.50;;;21.70;55.80;;;;;;5110672;28;20906;-81
2022/07/20 05:24:59;;;;;;;3.23;2.93;;;21.80;55.30;;;;;;5111556;28;20621;-81
2022/07/20 05:27:26;;;;;;;2.60;2.20;;;21.90;55.30;;;;;;5111513;28;20767;-81
2022/07/20 05:29:52;;;;;;;3.40;2.70;;;21.90;55.70;;;;;;5111527;28;20707;-81
2022/07/20 05:32:19;;;;;;;4.40;4.00;;;22.00;55.80;;;;;;5110981;28;20647;-81
2022/07/20 05:34:46;;;;;;;3.20;2.80;;;22.00;55.40;;;;;;5111250;28;20626;-81
2022/07/20 05:37:14;;;;;;;3.83;2.90;;;22.00;55.20;;;;;;5111017;28;20626;-81
2022/07/20 05:39:41;;;;;;;3.63;3.33;;;22.10;55.20;;;;;;5111586;28;20611;-81
2022/07/20 05:42:08;;;;;;;3.90;2.53;;;22.20;55.00;;;;;;5111089;28;21078;-81
2022/07/20 05:44:35;;;;;;;3.23;2.90;;;22.30;55.10;;;;;;5111286;28;20604;-81
2022/07/20 05:47:02;;;;;;;3.57;3.13;;;22.40;54.90;;;;;;5111566;28;20608;-81
2022/07/20 05:49:29;;;;;;;3.93;2.70;;;22.50;55.40;;;;;;5110620;28;21162;-81
2022/07/20 05:51:55;;;;;;;3.50;2.93;;;22.60;55.10;;;;;;5110838;28;20616;-81
2022/07/20 05:54:24;;;;;;;3.10;2.73;;;22.60;55.10;;;;;;5110595;28;20599;-81
2022/07/20 05:56:51;;;;;;;3.70;2.40;;;22.70;55.20;;;;;;5111163;28;21077;-81
2022/07/20 05:59:17;;;;;;;3.37;2.90;;;22.90;55.50;;;;;;5111004;28;21076;-81
2022/07/20 06:01:45;;;;;;;3.10;2.80;;;23.00;55.80;;;;;;5110876;28;20759;-81
2022/07/20 06:04:12;;;;;;;3.80;3.50;;;22.80;55.40;;;;;;5109727;28;21228;-82
2022/07/20 06:06:39;;;;;;;3.53;2.90;;;23.00;54.60;;;;;;5110616;28;20727;-81
2022/07/20 06:09:07;;;;;;;4.63;3.83;;;23.00;54.60;;;;;;5111209;28;20720;-81
2022/07/20 06:11:35;;;;;;;4.30;3.80;;;23.10;54.70;;;;;;5110708;28;20600;-81
2022/07/20 06:14:02;;;;;;;3.50;2.90;;;23.20;54.50;;;;;;5110163;28;20726;-81
2022/07/20 06:16:29;;;;;;;3.23;2.93;;;23.40;54.40;;;;;;5110968;28;20643;-82
2022/07/20 06:18:56;;;;;;;2.93;2.30;;;23.50;53.90;;;;;;5110070;28;20696;-82
2022/07/20 06:21:22;;;;;;;3.13;2.80;;;23.40;54.10;;;;;;5110670;28;20659;-81
2022/07/20 06:23:49;;;;;;;4.00;3.60;;;23.70;54.20;;;;;;5109771;28;20643;-82
2022/07/20 06:26:16;;;;;;;4.03;3.73;;;23.80;54.40;;;;;;5109554;28;21340;-82
2022/07/20 06:28:44;;;;;;;4.43;3.80;;;23.90;54.20;;;;;;5110318;28;20715;-82
2022/07/20 06:31:11;;;;;;;3.67;2.90;;;23.90;53.50;;;;;;5110070;28;21504;-82
2022/07/20 06:33:39;;;;;;;3.73;3.20;;;24.00;53.90;;;;;;5109812;28;20742;-82
2022/07/20 06:36:06;;;;;;;3.70;2.90;;;24.00;54.10;;;;;;5110281;28;20676;-82
2022/07/20 06:38:34;;;;;;;5.57;3.67;;;24.10;53.40;;;;;;5110182;28;20727;-81
2022/07/20 06:41:02;;;;;;;4.10;3.70;;;24.10;52.80;;;;;;5109667;28;20754;-82
2022/07/20 06:43:29;;;;;;;4.00;3.60;;;24.20;53.20;;;;;;5109615;28;20627;-82
2022/07/20 06:45:57;;;;;;;5.97;3.77;;;24.20;53.90;;;;;;5109419;28;21323;-82
2022/07/20 06:48:24;;;;;;;3.77;3.47;;;24.30;54.10;;;;;;5109883;28;21044;-82
2022/07/20 06:50:50;;;;;;;4.00;3.60;;;24.40;53.50;;;;;;5109782;28;20898;-82
2022/07/20 06:53:17;;;;;;;5.40;3.60;;;24.50;52.90;;;;;;5109551;28;20647;-82
2022/07/20 06:55:45;;;;;;;3.27;2.93;;;24.70;52.90;;;;;;5109580;28;20604;-81
2022/07/20 06:58:12;;;;;;;4.17;3.10;;;24.80;53.40;;;;;;5109863;28;20624;-81
2022/07/20 07:00:39;;;;;;;5.73;4.40;;;24.60;54.30;;;;;;5109189;28;20694;-82
2022/07/20 07:03:07;;;;;;;3.10;2.87;;;24.80;52.90;;;;;;5109497;28;20628;-81
2022/07/20 07:05:34;;;;;;;3.40;3.03;;;24.90;53.00;;;;;;5109652;28;20628;-82
2022/07/20 07:08:01;;;;;;;4.50;4.17;;;25.10;52.20;;;;;;5108984;28;21218;-82
2022/07/20 07:10:28;;;;;;;6.70;4.00;;;25.20;51.20;;;;;;5109520;28;20615;-82
2022/07/20 07:12:55;;;;;;;5.10;4.17;;;25.40;51.90;;;;;;5108365;28;20652;-82
2022/07/20 07:15:22;;;;;;;5.33;3.70;;;25.40;52.00;;;;;;5109376;28;20612;-82
2022/07/20 07:17:49;;;;;;;4.13;3.77;;;25.50;51.00;;;;;;5109592;28;20684;-82
2022/07/20 07:20:17;;;;;;;3.83;3.23;;;25.70;51.60;;;;;;5107970;28;20688;-82
2022/07/20 07:22:44;;;;;;;3.70;3.20;;;25.80;51.40;;;;;;5108727;28;20695;-81
2022/07/20 07:25:11;;;;;;;4.60;4.10;;;25.80;51.50;;;;;;5109253;28;20627;-82
2022/07/20 07:27:38;;;;;;;3.97;3.60;;;25.90;50.60;;;;;;5108959;28;21226;-82
2022/07/20 07:30:06;;;;;;;4.43;3.47;;;26.10;51.00;;;;;;5108436;28;20616;-82
2022/07/20 07:32:33;;;;;;;3.90;3.50;;;26.20;49.80;;;;;;5108902;28;20704;-82
2022/07/20 07:35:00;;;;;;;4.63;4.10;;;26.40;50.70;;;;;;5109183;28;20965;-82
2022/07/20 07:37:28;;;;;;;3.10;2.90;;;26.50;50.50;;;;;;5108933;28;20711;-82
2022/07/20 07:39:55;;;;;;;3.93;3.53;;;26.70;49.90;;;;;;5109008;28;21193;-82
2022/07/20 07:42:22;;;;;;;5.60;4.20;;;26.90;50.40;;;;;;5108231;28;21354;-81
2022/07/20 07:44:49;;;;;;;4.20;3.70;;;27.00;49.40;;;;;;5109500;28;20624;-82
2022/07/20 07:47:16;;;;;;;5.90;4.27;;;27.10;49.30;;;;;;5109404;28;20627;-82
2022/07/20 07:49:43;;;;;;;4.50;4.07;;;27.30;48.20;;;;;;5108722;28;20719;-82
2022/07/20 07:52:10;;;;;;;3.80;3.20;;;27.40;47.60;;;;;;5108465;28;20743;-82
2022/07/20 07:54:38;;;;;;;4.83;4.43;;;27.60;46.90;;;;;;5107926;28;20669;-84
2022/07/20 07:57:05;;;;;;;3.30;3.00;;;27.80;46.50;;;;;;5108716;28;20616;-82
2022/07/20 07:59:32;;;;;;;3.87;3.50;;;27.80;46.30;;;;;;5108648;28;20767;-82
2022/07/20 08:01:59;;;;;;;3.30;3.00;;;28.00;46.40;;;;;;5107840;28;20733;-82
2022/07/20 08:04:26;;;;;;;3.40;3.10;;;28.00;46.30;;;;;;5108285;28;21185;-83
2022/07/20 08:06:53;;;;;;;3.67;3.37;;;28.10;46.60;;;;;;5108207;28;21182;-82
2022/07/20 08:09:20;;;;;;;4.07;3.67;;;28.30;47.60;;;;;;5108056;28;20689;-82
2022/07/20 08:11:49;;;;;;;4.13;2.93;;;28.40;47.20;;;;;;5108367;28;20619;-82
2022/07/20 08:14:16;;;;;;;4.37;3.53;;;28.40;46.40;;;;;;5107739;28;21268;-82
2022/07/20 08:16:43;;;;;;;3.47;3.17;;;28.60;45.80;;;;;;5108296;28;20664;-82
2022/07/20 08:19:10;;;;;;;3.30;3.00;;;28.70;46.60;;;;;;5108460;28;20704;-82
2022/07/20 08:21:38;;;;;;;3.63;3.33;;;28.80;45.40;;;;;;5107855;28;20683;-82
2022/07/20 08:24:05;;;;;;;3.60;3.30;;;28.90;45.80;;;;;;5107652;28;20631;-83
2022/07/20 08:26:33;;;;;;;3.20;3.00;;;29.00;45.50;;;;;;5108279;28;21253;-82
2022/07/20 08:29:01;;;;;;;3.67;3.37;;;29.20;45.10;;;;;;5108230;28;21184;-82
2022/07/20 08:31:28;;;;;;;3.23;3.03;;;29.30;44.30;;;;;;5108165;28;20623;-82
2022/07/20 08:33:55;;;;;;;3.33;3.03;;;29.40;44.40;;;;;;5107899;28;20612;-82
2022/07/20 08:36:22;;;;;;;5.50;3.73;;;29.50;44.60;;;;;;5107686;28;20615;-83
2022/07/20 08:38:49;;;;;;;3.50;3.20;;;29.60;44.30;;;;;;5108430;28;20734;-83
2022/07/20 08:41:16;;;;;;;3.17;2.97;;;29.70;44.30;;;;;;5108279;28;20751;-83
2022/07/20 08:43:43;;;;;;;4.40;4.00;;;29.70;43.00;;;;;;5107440;28;20723;-82
2022/07/20 08:46:12;;;;;;;3.97;3.67;;;29.90;43.80;;;;;;5108178;28;20630;-82
2022/07/20 08:48:42;;;;;;;3.10;2.80;;;30.00;43.20;;;;;;5110405;28;20638;-82
2022/07/20 08:51:09;;;;;;;4.10;3.27;;;30.10;43.70;;;;;;5112253;28;20647;-82
2022/07/20 08:53:36;;;;;;;3.67;3.23;;;30.30;44.90;;;;;;5112211;28;20651;-82
2022/07/20 08:56:04;;;;;;;5.40;3.83;;;30.20;44.40;;;;;;5112757;28;20619;-81
2022/07/20 08:58:31;;;;;;;3.93;3.63;;;30.20;42.80;;;;;;5112113;28;20774;-82
2022/07/20 09:00:57;;;;;;;4.00;3.70;;;30.40;43.10;;;;;;5112436;28;21319;-82
2022/07/20 09:03:26;;;;;;;3.60;3.30;;;30.50;42.20;;;;;;5111007;28;20974;-83
2022/07/20 09:06:05;;;;;;;4.00;3.70;;;30.60;43.40;;;;;;5113023;28;20655;-83
2022/07/20 09:08:32;;;;;;;4.00;3.70;;;30.70;42.20;;;;;;5112014;28;20665;-82
2022/07/20 09:11:02;;;;;;;6.13;4.00;;;30.80;43.60;;;;;;5111949;28;20623;-83
2022/07/20 09:13:30;;;;;;;4.40;4.00;;;30.80;43.30;;;;;;5111266;28;20622;-82
2022/07/20 09:15:58;;;;;;;3.60;3.10;;;30.80;43.40;;;;;;5111211;28;20627;-82
2022/07/20 09:18:28;;;;;;;3.33;3.03;;;30.90;44.20;;;;;;5111739;28;20642;-83
2022/07/20 09:20:56;;;;;;;3.77;3.47;;;30.80;44.90;;;;;;5111965;28;20704;-82
2022/07/20 09:23:25;;;;;;;3.97;3.63;;;31.10;43.70;;;;;;5110962;28;20774;-82
2022/07/20 09:25:55;;;;;;;5.50;3.80;;;31.30;42.90;;;;;;5111296;28;20680;-83
2022/07/20 09:28:23;;;;;;;4.57;3.97;;;31.50;43.00;;;;;;5111267;28;20614;-83
2022/07/20 09:30:53;;;;;;;4.83;4.37;;;31.60;41.90;;;;;;5111531;28;21029;-82
2022/07/20 09:33:29;;;;;;;5.40;4.37;;;31.80;42.20;;;;;;5110730;28;21267;-82
2022/07/20 09:35:57;;;;;;;4.60;4.13;;;31.90;43.20;;;;;;5111477;28;20615;-83
2022/07/20 09:38:33;;;;;;;10.00;4.20;;;32.00;41.60;;;;;;5111271;28;20646;-82
2022/07/20 09:41:01;;;;;;;3.97;3.67;;;32.10;42.50;;;;;;5111032;28;20742;-82
2022/07/20 09:43:31;;;;;;;4.60;4.07;;;32.10;42.10;;;;;;5110935;28;20655;-82
2022/07/20 09:46:12;;;;;;;4.13;3.83;;;32.30;42.70;;;;;;5111264;28;20600;-82
2022/07/20 09:48:45;;;;;;;3.57;3.33;;;32.40;42.00;;;;;;5111022;28;20650;-82
2022/07/20 09:51:24;;;;;;;4.60;3.80;;;32.60;41.30;;;;;;5111268;28;21217;-83
2022/07/20 09:53:53;;;;;;;4.10;3.77;;;32.70;40.20;;;;;;5110681;28;20619;-82
2022/07/20 09:56:21;;;;;;;5.03;4.17;;;32.60;40.10;;;;;;5111250;28;20620;-83
2022/07/20 09:58:50;;;;;;;4.83;3.63;;;32.70;40.10;;;;;;5110954;28;20652;-83
2022/07/20 10:01:19;;;;;;;4.33;3.73;;;32.90;41.00;;;;;;5110934;28;20717;-83
2022/07/20 10:03:50;;;;;;;2.97;2.77;;;33.00;40.50;;;;;;5109074;28;20701;-83
2022/07/20 10:06:19;;;;;;;4.40;4.03;;;33.10;39.50;;;;;;5111411;28;20620;-82
2022/07/20 10:08:47;;;;;;;4.40;4.00;;;33.30;39.50;;;;;;5110920;28;20627;-82
2022/07/20 10:11:14;;;;;;;3.77;3.47;;;33.40;39.70;;;;;;5111138;28;20734;-83
2022/07/20 10:13:43;;;;;;;3.80;3.50;;;33.50;39.30;;;;;;5110183;28;20668;-82
2022/07/20 10:16:18;;;;;;;3.50;3.20;;;33.50;39.90;;;;;;5111256;28;21015;-83
2022/07/20 10:18:46;;;;;;;4.27;3.87;;;33.70;40.10;;;;;;5110913;28;20654;-83
2022/07/20 10:21:34;;;;;;;4.00;3.70;;;33.70;37.60;;;;;;5110864;28;20624;-83
2022/07/20 10:24:22;;;;;;;3.90;3.67;;;33.70;39.00;;;;;;5109834;28;21099;-83
2022/07/20 10:26:51;;;;;;;4.83;3.70;;;33.80;38.80;;;;;;5110140;28;21185;-83
2022/07/20 10:29:30;;;;;;;4.73;4.33;;;34.00;39.00;;;;;;5110329;28;20647;-83
2022/07/20 10:32:00;;;;;;;4.10;3.80;;;34.00;38.30;;;;;;5110583;28;20623;-83
2022/07/20 10:34:35;;;;;;;3.90;3.60;;;34.10;39.30;;;;;;5109549;28;20739;-83
2022/07/20 10:37:28;;;;;;;4.10;3.70;;;34.20;39.40;;;;;;5110221;28;20699;-83
2022/07/20 10:40:05;;;;;;;4.17;3.80;;;34.20;38.20;;;;;;5110511;28;20734;-83
2022/07/20 10:42:34;;;;;;;3.97;3.60;;;34.40;38.00;;;;;;5109834;28;20743;-83
2022/07/20 10:45:30;;;;;;;4.63;4.23;;;34.50;38.80;;;;;;5109996;28;20616;-83
2022/07/20 10:47:58;;;;;;;4.67;4.27;;;34.60;38.30;;;;;;5110089;28;20651;-83
2022/07/20 10:50:29;;;;;;;4.60;3.60;;;34.80;37.40;;;;;;5109482;28;20736;-83
2022/07/20 10:52:58;;;;;;;4.63;4.23;;;34.90;38.00;;;;;;5109810;28;20612;-83
2022/07/20 10:55:48;;;;;;;5.23;4.83;;;34.90;37.40;;;;;;5109859;28;20700;-84
2022/07/20 10:58:16;;;;;;;4.97;4.47;;;35.10;39.10;;;;;;5110089;28;20649;-83
2022/07/20 11:00:45;;;;;;;4.63;4.23;;;35.10;38.50;;;;;;5109615;28;21340;-83
2022/07/20 11:03:14;;;;;;;3.97;3.67;;;35.20;38.80;;;;;;5108328;27;20663;-83
2022/07/20 11:05:42;;;;;;;4.80;4.40;;;35.30;38.00;;;;;;5109474;28;20857;-83
2022/07/20 11:08:11;;;;;;;4.33;4.00;;;35.40;37.10;;;;;;5109689;28;20692;-83
2022/07/20 11:10:40;;;;;;;5.23;4.83;;;35.50;36.50;;;;;;5108428;28;21571;-83
2022/07/20 11:13:09;;;;;;;3.77;3.50;;;35.70;37.50;;;;;;5109320;28;20664;-83
2022/07/20 11:15:41;;;;;;;4.40;4.10;;;35.70;36.40;;;;;;5109701;28;20700;-83
2022/07/20 11:18:09;;;;;;;4.00;3.70;;;35.70;37.40;;;;;;5109574;28;20622;-83
2022/07/20 11:20:45;;;;;;;4.07;3.77;;;35.70;37.50;;;;;;5109465;28;20616;-83
2022/07/20 11:23:14;;;;;;;4.57;4.17;;;35.90;38.00;;;;;;5108724;28;21024;-83
2022/07/20 11:26:00;;;;;;;4.97;4.10;;;36.30;37.40;;;;;;5109572;28;20612;-83
2022/07/20 11:28:28;;;;;;;4.27;3.97;;;36.40;36.90;;;;;;5109588;28;20631;-83
2022/07/20 11:30:57;;;;;;;4.80;4.40;;;36.40;37.70;;;;;;5109220;28;21073;-83
2022/07/20 11:33:30;;;;;;;4.50;4.10;;;36.50;37.60;;;;;;5108109;28;20677;-84
2022/07/20 11:36:00;;;;;;;4.30;3.90;;;36.70;36.70;;;;;;5109323;28;20618;-83
2022/07/20 11:38:37;;;;;;;4.67;4.37;;;36.90;37.60;;;;;;5109132;28;20608;-83
2022/07/20 11:41:06;;;;;;;4.80;4.40;;;37.20;36.30;;;;;;5108460;28;20627;-84
2022/07/20 11:43:33;;;;;;;4.67;4.07;;;37.30;36.60;;;;;;5108492;27;20664;-83
2022/07/20 11:46:15;;;;;;;4.80;4.40;;;37.50;37.10;;;;;;5108234;28;20680;-83
2022/07/20 11:48:42;;;;;;;5.47;4.97;;;37.80;36.20;;;;;;5108484;28;20662;-82
2022/07/20 11:51:10;;;;;;;4.17;3.87;;;38.00;36.10;;;;;;5108790;28;20619;-82
2022/07/20 11:53:41;;;;;;;4.13;3.83;;;38.10;35.30;;;;;;5108337;28;20718;-83
2022/07/20 11:56:12;;;;;;;4.43;4.03;;;38.10;36.30;;;;;;5108690;28;20648;-83
2022/07/20 11:58:40;;;;;;;4.50;4.13;;;38.10;36.40;;;;;;5108653;28;21054;-83
2022/07/20 12:01:09;;;;;;;4.90;4.50;;;38.70;35.20;;;;;;5108641;28;20722;-83
2022/07/20 12:03:37;;;;;;;4.53;4.13;;;38.60;36.40;;;;;;5108243;28;20761;-83
2022/07/20 12:06:06;;;;;;;4.33;3.93;;;39.20;35.30;;;;;;5108522;28;21186;-84
2022/07/20 12:08:34;;;;;;;4.67;4.17;;;39.80;35.80;;;;;;5108549;28;20706;-83
2022/07/20 12:11:04;;;;;;;5.00;4.67;;;40.30;34.40;;;;;;5108095;28;20288;-81
2022/07/20 12:13:31;;;;;;;4.53;4.15;;;41.10;34.30;;;;;;5108334;28;20201;-82
2022/07/20 12:16:00;;;;;;;5.07;4.68;;;41.60;31.60;;;;;;5108719;28;20599;-81
2022/07/20 12:18:35;;;;;;;4.70;4.30;;;41.80;32.30;;;;;;5108191;28;20220;-81
2022/07/20 12:21:04;;;;;;;4.25;3.95;;;42.50;31.30;;;;;;5108692;28;20288;-81
2022/07/20 12:23:32;;;;;;;4.75;4.45;;;42.90;31.60;;;;;;5106546;28;20213;-81
2022/07/20 12:25:59;;;;;;;4.95;4.65;;;43.10;30.50;;;;;;5108376;28;20221;-83
2022/07/20 12:28:36;;;;;;;4.57;4.28;;;43.50;30.80;;;;;;5108540;28;20298;-81
2022/07/20 12:31:11;;;;;;;4.57;4.28;;;43.20;31.50;;;;;;5108636;28;20777;-81
2022/07/20 12:33:38;;;;;;;5.15;4.85;;;42.60;31.00;;;;;;5107482;28;20206;-81
2022/07/20 12:36:07;;;;;;;5.03;4.65;;;42.00;32.60;;;;;;5107864;28;20198;-82
2022/07/20 12:38:35;;;;;;;4.82;4.43;;;42.30;32.00;;;;;;5108156;28;20888;-81
2022/07/20 12:41:12;;;;;;;5.28;4.88;;;42.60;30.90;;;;;;5107778;28;20203;-81
2022/07/20 12:43:42;;;;;;;5.85;4.93;;;42.50;32.30;;;;;;5107709;28;20205;-82
2022/07/20 12:46:11;;;;;;;4.68;4.38;;;42.80;31.60;;;;;;5108443;28;20207;-81
2022/07/20 12:48:39;;;;;;;5.13;4.80;;;42.70;31.20;;;;;;5107543;28;20708;-81
2022/07/20 12:51:07;;;;;;;5.60;5.20;;;40.40;32.00;;;;;;5108393;28;20977;-81
2022/07/20 12:53:35;;;;;;;6.03;5.63;;;39.80;34.20;;;;;;5107160;28;20225;-80
2022/07/20 12:56:02;;;;;;;5.60;5.10;;;38.50;34.10;;;;;;5108377;28;20203;-80
2022/07/20 12:58:29;;;;;;;6.10;5.63;;;36.90;34.40;;;;;;5107750;28;21195;-83
2022/07/20 13:00:57;;;;;;;5.97;5.47;;;36.50;36.70;;;;;;5107390;28;20615;-81